Time;durP1;ratioP1;P1;durP2;ratioP2;P2;SDS_P1;SDS_P2;PMS_P1;PMS_P2;Temp;Humidity;BMP_temperature;BMP_pressure;BME280_temperature;BME280_humidity;BME280_pressure;Samples;Min_cycle;Max_cycle;Signal;HPM_P1;HPM_P2
2021/10/12 00:02:25;;;;;;;2.00;1.90;;;;;;;;;;5029703;28;20195;-42
2021/10/12 00:04:51;;;;;;;3.55;2.17;;;;;;;;;;5034714;28;20262;-42
2021/10/12 00:07:17;;;;;;;2.05;1.92;;;;;;;;;;5035571;28;20610;-42
2021/10/12 00:09:43;;;;;;;2.33;1.85;;;;;;;;;;5017440;28;20238;-42
2021/10/12 00:12:09;;;;;;;2.95;1.98;;;;;;;;;;5026432;28;20188;-42
2021/10/12 00:14:35;;;;;;;3.38;1.88;;;;;;;;;;5016720;28;20196;-42
2021/10/12 00:17:01;;;;;;;2.45;1.70;;;;;;;;;;5017609;28;20260;-42
2021/10/12 00:19:27;;;;;;;2.58;1.83;;;;;;;;;;5034841;28;20182;-42
2021/10/12 00:21:53;;;;;;;3.65;1.80;;;;;;;;;;5035777;28;20254;-42
2021/10/12 00:24:19;;;;;;;3.03;2.05;;;;;;;;;;5036461;28;20171;-42
2021/10/12 00:26:46;;;;;;;2.90;1.98;;;;;;;;;;5025045;28;20211;-42
2021/10/12 00:29:12;;;;;;;3.05;1.83;;;;;;;;;;5036635;28;20183;-42
2021/10/12 00:31:38;;;;;;;1.98;1.70;;;;;;;;;;5022753;28;20181;-42
2021/10/12 00:34:04;;;;;;;2.17;1.80;;;;;;;;;;5034655;28;20199;-42
2021/10/12 00:36:30;;;;;;;1.60;1.50;;;;;;;;;;5028277;28;20218;-42
2021/10/12 00:38:56;;;;;;;1.63;1.52;;;;;;;;;;5024527;28;20192;-42
2021/10/12 00:41:22;;;;;;;2.03;1.75;;;;;;;;;;5029418;28;20517;-42
2021/10/12 00:43:48;;;;;;;1.92;1.70;;;;;;;;;;5019696;28;20184;-42
2021/10/12 00:46:14;;;;;;;2.67;1.77;;;;;;;;;;5016747;28;20242;-42
2021/10/12 00:48:40;;;;;;;3.17;2.08;;;;;;;;;;5016823;28;20177;-42
2021/10/12 00:51:06;;;;;;;2.22;1.85;;;;;;;;;;5027931;28;20195;-42
2021/10/12 00:53:32;;;;;;;3.05;1.90;;;;;;;;;;5031260;28;20186;-42
2021/10/12 00:55:58;;;;;;;4.60;2.10;;;;;;;;;;5034984;28;20249;-42
2021/10/12 00:58:24;;;;;;;2.50;1.65;;;;;;;;;;5035762;28;20199;-42
2021/10/12 01:00:51;;;;;;;2.45;2.00;;;;;;;;;;5027619;28;20295;-42
2021/10/12 01:03:17;;;;;;;2.33;1.92;;;;;;;;;;5030894;28;20182;-42
2021/10/12 01:05:43;;;;;;;1.83;1.55;;;;;;;;;;5035094;28;20180;-42
2021/10/12 01:08:09;;;;;;;3.63;1.98;;;;;;;;;;5035539;28;20267;-42
2021/10/12 01:10:35;;;;;;;2.20;1.70;;;;;;;;;;5032685;28;20555;-42
2021/10/12 01:13:02;;;;;;;2.25;1.73;;;;;;;;;;5022782;28;20587;-42
2021/10/12 01:15:28;;;;;;;2.72;1.77;;;;;;;;;;5016209;28;20196;-42
2021/10/12 01:17:54;;;;;;;1.90;1.60;;;;;;;;;;5020972;28;20184;-42
2021/10/12 01:20:21;;;;;;;2.97;1.50;;;;;;;;;;5031536;28;20173;-42
2021/10/12 01:22:47;;;;;;;2.67;1.52;;;;;;;;;;5024025;28;20566;-42
2021/10/12 01:25:14;;;;;;;2.83;1.70;;;;;;;;;;5014858;28;20803;-42
2021/10/12 01:27:40;;;;;;;3.15;1.58;;;;;;;;;;5021231;28;20195;-42
2021/10/12 01:30:07;;;;;;;2.30;1.67;;;;;;;;;;5021028;28;20192;-42
2021/10/12 01:32:37;;;;;;;2.17;1.38;;;;;;;;;;5023133;28;20637;-42
2021/10/12 01:35:03;;;;;;;2.25;1.67;;;;;;;;;;5022520;28;20223;-42
2021/10/12 01:37:30;;;;;;;2.95;1.48;;;;;;;;;;5015899;28;20188;-42
2021/10/12 01:39:56;;;;;;;3.03;1.67;;;;;;;;;;5015624;28;20218;-42
2021/10/12 01:42:23;;;;;;;2.28;1.52;;;;;;;;;;5017010;28;20185;-42
2021/10/12 01:44:49;;;;;;;3.00;1.58;;;;;;;;;;5025491;28;20212;-42
2021/10/12 01:47:15;;;;;;;2.03;1.83;;;;;;;;;;5034459;28;20184;-42
2021/10/12 01:49:41;;;;;;;3.15;1.40;;;;;;;;;;5018591;28;20263;-42
2021/10/12 01:52:10;;;;;;;1.63;1.42;;;;;;;;;;5018100;28;20264;-42
2021/10/12 01:54:36;;;;;;;2.67;1.30;;;;;;;;;;5033250;28;20582;-42
2021/10/12 01:57:03;;;;;;;3.28;1.73;;;;;;;;;;5035194;28;20214;-42
2021/10/12 01:59:29;;;;;;;1.90;1.30;;;;;;;;;;5025263;28;20203;-42
2021/10/12 02:01:55;;;;;;;2.45;1.50;;;;;;;;;;5027270;28;20203;-42
2021/10/12 02:04:21;;;;;;;1.38;1.20;;;;;;;;;;5034391;28;20195;-42
2021/10/12 02:06:47;;;;;;;1.85;1.38;;;;;;;;;;5018667;28;20215;-42
2021/10/12 02:09:13;;;;;;;3.65;1.20;;;;;;;;;;5015062;28;20168;-42
2021/10/12 02:11:39;;;;;;;2.22;1.63;;;;;;;;;;5015188;28;20234;-42
2021/10/12 02:14:05;;;;;;;1.67;1.20;;;;;;;;;;5018685;28;20560;-42
2021/10/12 02:16:31;;;;;;;2.65;1.40;;;;;;;;;;5015172;28;20188;-42
2021/10/12 02:18:57;;;;;;;1.73;1.20;;;;;;;;;;5015322;28;20187;-44
2021/10/12 02:21:23;;;;;;;2.53;1.30;;;;;;;;;;5028490;28;20192;-42
2021/10/12 02:23:49;;;;;;;1.42;1.20;;;;;;;;;;5033324;28;20172;-42
2021/10/12 02:26:15;;;;;;;1.25;1.00;;;;;;;;;;5014987;28;20180;-42
2021/10/12 02:28:41;;;;;;;1.95;1.40;;;;;;;;;;5030745;28;20202;-42
2021/10/12 02:31:07;;;;;;;1.83;1.40;;;;;;;;;;5028014;28;20234;-42
2021/10/12 02:33:33;;;;;;;1.77;1.10;;;;;;;;;;5023334;28;20559;-42
2021/10/12 02:35:59;;;;;;;2.55;1.30;;;;;;;;;;5029147;28;20219;-42
2021/10/12 02:38:25;;;;;;;1.65;1.20;;;;;;;;;;5016735;28;20167;-42
2021/10/12 02:40:52;;;;;;;1.77;1.23;;;;;;;;;;5023483;28;20629;-42
2021/10/12 02:43:18;;;;;;;2.63;1.15;;;;;;;;;;5014125;28;20181;-42
2021/10/12 02:45:44;;;;;;;2.33;1.30;;;;;;;;;;5014529;28;20848;-42
2021/10/12 02:48:10;;;;;;;1.92;1.10;;;;;;;;;;5022848;28;20697;-42
2021/10/12 02:50:36;;;;;;;1.50;1.13;;;;;;;;;;5029312;28;20580;-42
2021/10/12 02:53:02;;;;;;;1.65;1.00;;;;;;;;;;5022047;28;20451;-42
2021/10/12 02:55:28;;;;;;;2.05;1.10;;;;;;;;;;5028258;28;20207;-42
2021/10/12 02:57:54;;;;;;;1.77;1.13;;;;;;;;;;5020504;28;20179;-42
2021/10/12 03:00:20;;;;;;;2.22;1.65;;;;;;;;;;5022237;28;20184;-42
2021/10/12 03:02:47;;;;;;;2.58;1.17;;;;;;;;;;5015861;28;20199;-42
2021/10/12 03:05:13;;;;;;;3.15;1.83;;;;;;;;;;5016425;28;20188;-42
2021/10/12 03:07:39;;;;;;;2.15;1.27;;;;;;;;;;5026360;28;20180;-42
2021/10/12 03:10:06;;;;;;;2.65;1.20;;;;;;;;;;5018180;28;20559;-42
2021/10/12 03:12:33;;;;;;;1.23;1.00;;;;;;;;;;5018091;28;20188;-42
2021/10/12 03:14:59;;;;;;;0.88;0.88;;;;;;;;;;5017868;28;20785;-42
2021/10/12 03:17:25;;;;;;;2.67;1.20;;;;;;;;;;5018440;28;20191;-42
2021/10/12 03:19:51;;;;;;;2.20;1.02;;;;;;;;;;5018375;28;20453;-42
2021/10/12 03:22:17;;;;;;;1.15;0.98;;;;;;;;;;5021244;28;20189;-42
2021/10/12 03:24:43;;;;;;;1.05;0.90;;;;;;;;;;5024710;28;20180;-42
2021/10/12 03:27:09;;;;;;;4.25;1.15;;;;;;;;;;5018001;28;20489;-43
2021/10/12 03:29:36;;;;;;;2.47;1.23;;;;;;;;;;5028423;28;20187;-42
2021/10/12 03:32:02;;;;;;;1.42;0.93;;;;;;;;;;5033579;28;20184;-42
2021/10/12 03:34:29;;;;;;;3.35;1.00;;;;;;;;;;5036410;28;20318;-42
2021/10/12 03:36:55;;;;;;;1.58;0.93;;;;;;;;;;5028222;28;20705;-42
2021/10/12 03:39:22;;;;;;;2.63;0.90;;;;;;;;;;5033847;28;20188;-42
2021/10/12 03:41:50;;;;;;;1.33;0.90;;;;;;;;;;5036199;28;20242;-42
2021/10/12 03:44:16;;;;;;;0.90;0.90;;;;;;;;;;5025951;28;20227;-42
2021/10/12 03:46:41;;;;;;;1.40;0.80;;;;;;;;;;5032506;28;20179;-42
2021/10/12 03:49:07;;;;;;;1.23;0.93;;;;;;;;;;5022217;28;20184;-42
2021/10/12 03:51:34;;;;;;;2.88;0.93;;;;;;;;;;5033695;28;20195;-42
2021/10/12 03:53:59;;;;;;;0.73;0.70;;;;;;;;;;5021598;28;20230;-42
2021/10/12 03:56:26;;;;;;;1.30;1.00;;;;;;;;;;5027096;28;20211;-42
2021/10/12 03:58:53;;;;;;;1.30;0.70;;;;;;;;;;5035504;28;20241;-42
2021/10/12 04:01:19;;;;;;;18.67;1.35;;;;;;;;;;5034883;28;20203;-42
2021/10/12 04:03:46;;;;;;;3.80;1.08;;;;;;;;;;5034891;28;20195;-42
2021/10/12 04:06:12;;;;;;;2.60;1.00;;;;;;;;;;5020939;28;20187;-42
2021/10/12 04:08:38;;;;;;;6.05;1.20;;;;;;;;;;5037077;28;20225;-42
2021/10/12 04:11:04;;;;;;;3.92;0.70;;;;;;;;;;5023857;28;20216;-42
2021/10/12 04:13:30;;;;;;;2.22;1.02;;;;;;;;;;5016889;28;20315;-42
2021/10/12 04:15:56;;;;;;;5.60;1.50;;;;;;;;;;5016837;28;20287;-42
2021/10/12 04:18:22;;;;;;;4.55;1.80;;;;;;;;;;5015020;28;20180;-42
2021/10/12 04:20:48;;;;;;;5.97;1.42;;;;;;;;;;5025571;28;20176;-42
2021/10/12 04:23:14;;;;;;;3.63;1.40;;;;;;;;;;5036056;28;20164;-42
2021/10/12 04:25:42;;;;;;;6.18;1.60;;;;;;;;;;5034910;28;20593;-42
2021/10/12 04:28:12;;;;;;;7.22;1.60;;;;;;;;;;5036867;28;20172;-42
2021/10/12 04:30:38;;;;;;;3.38;1.45;;;;;;;;;;5031133;28;20262;-42
2021/10/12 04:33:04;;;;;;;3.72;1.45;;;;;;;;;;5027854;28;20198;-42
2021/10/12 04:35:30;;;;;;;4.68;1.42;;;;;;;;;;5035227;28;20211;-42
2021/10/12 04:37:56;;;;;;;3.83;1.30;;;;;;;;;;5036243;28;20195;-42
2021/10/12 04:40:23;;;;;;;5.25;1.42;;;;;;;;;;5035278;28;20458;-42
2021/10/12 04:42:49;;;;;;;1.65;1.10;;;;;;;;;;5036271;28;20218;-42
2021/10/12 04:45:15;;;;;;;1.98;1.15;;;;;;;;;;5033625;28;20188;-42
2021/10/12 04:47:41;;;;;;;1.98;1.38;;;;;;;;;;5026407;28;20176;-42
2021/10/12 04:50:08;;;;;;;3.17;1.40;;;;;;;;;;5018898;28;20630;-42
2021/10/12 04:52:34;;;;;;;2.88;1.42;;;;;;;;;;5018826;28;20188;-42
2021/10/12 04:55:01;;;;;;;3.58;1.13;;;;;;;;;;5027261;28;20277;-42
2021/10/12 04:57:27;;;;;;;1.83;1.40;;;;;;;;;;5036250;28;20160;-42
2021/10/12 04:59:53;;;;;;;3.72;1.60;;;;;;;;;;5021757;28;20195;-42
2021/10/12 05:02:20;;;;;;;3.53;1.45;;;;;;;;;;5018350;28;20184;-42
2021/10/12 05:04:46;;;;;;;3.20;1.35;;;;;;;;;;5021672;28;20176;-42
2021/10/12 05:07:12;;;;;;;2.33;1.42;;;;;;;;;;5029238;28;20527;-42
2021/10/12 05:09:38;;;;;;;5.05;1.67;;;;;;;;;;5023918;28;20172;-42
2021/10/12 05:12:04;;;;;;;1.60;1.25;;;;;;;;;;5034162;28;20203;-42
2021/10/12 05:14:30;;;;;;;3.83;1.60;;;;;;;;;;5034692;28;20220;-42
2021/10/12 05:16:59;;;;;;;3.60;1.50;;;;;;;;;;5023849;28;20180;-42
2021/10/12 05:19:25;;;;;;;2.55;1.20;;;;;;;;;;5026067;28;20223;-42
2021/10/12 05:21:51;;;;;;;2.75;1.40;;;;;;;;;;5023336;28;20227;-42
2021/10/12 05:24:17;;;;;;;4.05;1.50;;;;;;;;;;5015361;28;20200;-42
2021/10/12 05:26:43;;;;;;;2.63;1.38;;;;;;;;;;5015959;28;20622;-42
2021/10/12 05:29:13;;;;;;;2.55;1.02;;;;;;;;;;5015771;28;20204;-42
2021/10/12 05:31:39;;;;;;;2.78;1.25;;;;;;;;;;5024649;28;20188;-42
2021/10/12 05:34:06;;;;;;;3.75;1.20;;;;;;;;;;5032613;28;20191;-42
2021/10/12 05:36:32;;;;;;;1.23;1.00;;;;;;;;;;5034528;28;20735;-42
2021/10/12 05:38:58;;;;;;;4.20;1.10;;;;;;;;;;5035139;28;20202;-42
2021/10/12 05:41:25;;;;;;;1.85;1.00;;;;;;;;;;5017451;28;20540;-42
2021/10/12 05:43:51;;;;;;;1.95;1.00;;;;;;;;;;5014383;28;20184;-42
2021/10/12 05:46:18;;;;;;;4.63;1.35;;;;;;;;;;5029724;28;20191;-42
2021/10/12 05:48:44;;;;;;;2.55;1.38;;;;;;;;;;5032713;28;20487;-42
2021/10/12 05:51:11;;;;;;;3.92;1.20;;;;;;;;;;5032489;28;20184;-42
2021/10/12 05:56:14;;;;;;;2.90;1.25;;;;;;;;;;5028397;28;20257;-42
2021/10/12 05:58:45;;;;;;;2.85;1.10;;;;;;;;;;5034392;28;20750;-42
2021/10/12 06:01:12;;;;;;;3.58;1.20;;;;;;;;;;5020319;28;20184;-42
2021/10/12 06:03:38;;;;;;;3.58;1.02;;;;;;;;;;5031914;28;20199;-42
2021/10/12 06:06:04;;;;;;;2.45;1.17;;;;;;;;;;5015148;28;20274;-42
2021/10/12 06:08:31;;;;;;;1.63;1.20;;;;;;;;;;5024827;28;20188;-42
2021/10/12 06:11:00;;;;;;;1.83;1.10;;;;;;;;;;5030126;28;20191;-42
2021/10/12 06:13:26;;;;;;;1.88;1.38;;;;;;;;;;5021103;28;20180;-42
2021/10/12 06:15:53;;;;;;;1.48;1.27;;;;;;;;;;5033135;28;20203;-42
2021/10/12 06:18:19;;;;;;;2.35;0.95;;;;;;;;;;5031536;28;20602;-42
2021/10/12 06:20:45;;;;;;;3.25;1.25;;;;;;;;;;5016154;28;20184;-42
2021/10/12 06:23:11;;;;;;;2.30;1.20;;;;;;;;;;5014797;28;20188;-42
2021/10/12 06:25:37;;;;;;;1.20;1.10;;;;;;;;;;5015058;28;20191;-42
2021/10/12 06:28:04;;;;;;;1.98;1.13;;;;;;;;;;5024324;28;20184;-42
2021/10/12 06:30:30;;;;;;;1.40;1.05;;;;;;;;;;5034143;28;20641;-42
2021/10/12 06:32:56;;;;;;;1.73;1.13;;;;;;;;;;5032979;28;20506;-42
2021/10/12 06:35:22;;;;;;;2.67;1.05;;;;;;;;;;5028014;28;20209;-42
2021/10/12 06:37:48;;;;;;;2.08;1.10;;;;;;;;;;5014653;28;20164;-42
2021/10/12 06:40:14;;;;;;;1.52;1.17;;;;;;;;;;5014657;28;20180;-42
2021/10/12 06:42:41;;;;;;;2.72;1.10;;;;;;;;;;5027148;28;20443;-42
2021/10/12 06:45:07;;;;;;;2.13;1.13;;;;;;;;;;5033466;28;20180;-42
2021/10/12 06:47:33;;;;;;;1.65;1.10;;;;;;;;;;5029228;28;20172;-42
2021/10/12 06:49:59;;;;;;;1.40;0.95;;;;;;;;;;5018600;28;20569;-42
2021/10/12 06:52:25;;;;;;;1.58;0.98;;;;;;;;;;5014930;28;20180;-42
2021/10/12 06:54:51;;;;;;;2.40;1.42;;;;;;;;;;5024404;28;20487;-42
2021/10/12 06:57:17;;;;;;;1.75;1.10;;;;;;;;;;5031626;28;20261;-42
2021/10/12 06:59:43;;;;;;;1.85;1.13;;;;;;;;;;5033648;28;20222;-42
2021/10/12 07:02:09;;;;;;;0.80;0.80;;;;;;;;;;5034682;28;20180;-42
2021/10/12 07:04:35;;;;;;;1.15;1.05;;;;;;;;;;5033794;28;20171;-42
2021/10/12 07:07:01;;;;;;;2.50;1.60;;;;;;;;;;5033680;28;20183;-42
2021/10/12 07:09:27;;;;;;;1.45;1.02;;;;;;;;;;5032350;28;20214;-42
2021/10/12 07:11:53;;;;;;;1.13;1.02;;;;;;;;;;5015706;28;20180;-42
2021/10/12 07:14:19;;;;;;;1.33;1.15;;;;;;;;;;5013588;28;20180;-42
2021/10/12 07:16:45;;;;;;;2.10;1.20;;;;;;;;;;5016019;28;20556;-42
2021/10/12 07:19:11;;;;;;;1.73;1.05;;;;;;;;;;5014617;28;20169;-42
2021/10/12 07:21:37;;;;;;;1.70;1.20;;;;;;;;;;5027720;28;20198;-42
2021/10/12 07:24:03;;;;;;;1.52;1.02;;;;;;;;;;5028061;28;20180;-42
2021/10/12 07:26:29;;;;;;;1.23;1.00;;;;;;;;;;5024855;28;20203;-42
2021/10/12 07:28:58;;;;;;;1.10;1.00;;;;;;;;;;5033803;28;20222;-42
2021/10/12 07:31:24;;;;;;;1.85;1.20;;;;;;;;;;5027230;28;20219;-42
2021/10/12 07:33:50;;;;;;;1.23;0.95;;;;;;;;;;5028561;28;20540;-42
2021/10/12 07:36:16;;;;;;;1.20;1.10;;;;;;;;;;5032059;28;20200;-42
2021/10/12 07:38:42;;;;;;;1.23;1.10;;;;;;;;;;5031784;28;20164;-42
2021/10/12 07:41:08;;;;;;;1.30;0.93;;;;;;;;;;5032093;28;20541;-42
2021/10/12 07:43:35;;;;;;;1.20;1.00;;;;;;;;;;5031857;28;20172;-42
2021/10/12 07:46:03;;;;;;;1.20;1.05;;;;;;;;;;5032317;28;20176;-42
2021/10/12 07:48:29;;;;;;;1.48;1.13;;;;;;;;;;5032799;28;20168;-42
2021/10/12 07:50:55;;;;;;;1.42;1.02;;;;;;;;;;5033909;28;20199;-42
2021/10/12 07:53:21;;;;;;;2.15;1.15;;;;;;;;;;5034725;28;20172;-42
2021/10/12 07:55:56;;;;;;;1.40;1.10;;;;;;;;;;5020248;28;20231;-42
2021/10/12 07:58:22;;;;;;;1.20;1.00;;;;;;;;;;5017678;28;20464;-42
2021/10/12 08:00:48;;;;;;;1.20;1.10;;;;;;;;;;5017467;28;20515;-42
2021/10/12 08:03:16;;;;;;;1.10;1.00;;;;;;;;;;5016952;28;20208;-42
2021/10/12 08:05:42;;;;;;;1.35;1.20;;;;;;;;;;5017194;28;20238;-42
2021/10/12 08:08:08;;;;;;;1.63;1.10;;;;;;;;;;5017267;28;20259;-42
2021/10/12 08:10:35;;;;;;;1.60;1.10;;;;;;;;;;5016935;28;20303;-42
2021/10/12 08:13:05;;;;;;;1.42;1.10;;;;;;;;;;5033048;28;20183;-42
2021/10/12 08:15:31;;;;;;;1.08;1.05;;;;;;;;;;5037025;28;20195;-42
2021/10/12 08:17:57;;;;;;;1.02;0.93;;;;;;;;;;5036574;28;20617;-42
2021/10/12 08:20:23;;;;;;;1.15;1.05;;;;;;;;;;5033499;28;20220;-42
2021/10/12 08:22:49;;;;;;;1.35;1.13;;;;;;;;;;5020288;28;20564;-42
2021/10/12 08:25:15;;;;;;;1.48;0.90;;;;;;;;;;5016418;28;20188;-42
2021/10/12 08:27:41;;;;;;;1.20;1.10;;;;;;;;;;5026142;28;20506;-42
2021/10/12 08:30:09;;;;;;;1.50;1.25;;;;;;;;;;5016724;28;20172;-42
2021/10/12 08:32:35;;;;;;;1.10;1.00;;;;;;;;;;5023499;28;20184;-42
2021/10/12 08:35:01;;;;;;;1.13;1.02;;;;;;;;;;5034220;28;20254;-42
2021/10/12 08:37:27;;;;;;;1.30;1.10;;;;;;;;;;5030451;28;20176;-42
2021/10/12 08:39:53;;;;;;;1.30;1.20;;;;;;;;;;5034971;28;20186;-42
2021/10/12 08:42:34;;;;;;;1.58;1.30;;;;;;;;;;5036608;28;20164;-42
2021/10/12 08:45:01;;;;;;;1.10;1.00;;;;;;;;;;5034887;28;20199;-42
2021/10/12 08:47:28;;;;;;;1.33;1.20;;;;;;;;;;5036592;28;20494;-42
2021/10/12 08:49:55;;;;;;;1.20;1.10;;;;;;;;;;5035949;28;20172;-43
2021/10/12 08:52:22;;;;;;;1.77;1.27;;;;;;;;;;5016658;28;20188;-42
2021/10/12 08:54:48;;;;;;;1.42;1.25;;;;;;;;;;5024709;28;20196;-42
2021/10/12 08:57:27;;;;;;;1.58;1.10;;;;;;;;;;5034858;28;20875;-42
2021/10/12 08:59:54;;;;;;;1.60;1.10;;;;;;;;;;5020055;28;20176;-42
2021/10/12 09:02:23;;;;;;;1.58;1.30;;;;;;;;;;5032192;28;20271;-42
2021/10/12 09:04:49;;;;;;;1.30;1.10;;;;;;;;;;5015057;28;20477;-43
2021/10/12 09:07:21;;;;;;;1.33;1.20;;;;;;;;;;5016337;28;20176;-42
2021/10/12 09:09:47;;;;;;;1.25;1.15;;;;;;;;;;5016241;28;20283;-42
2021/10/12 09:12:14;;;;;;;1.40;1.10;;;;;;;;;;5016457;28;20180;-42
2021/10/12 09:14:59;;;;;;;1.17;1.00;;;;;;;;;;5015608;28;20330;-42
2021/10/12 09:17:32;;;;;;;1.20;1.10;;;;;;;;;;5017903;28;20785;-42
2021/10/12 09:19:59;;;;;;;0.98;0.98;;;;;;;;;;5015771;28;20262;-42
2021/10/12 09:22:26;;;;;;;1.45;1.17;;;;;;;;;;5035254;28;20179;-42
2021/10/12 09:24:52;;;;;;;1.35;1.08;;;;;;;;;;5034615;28;20191;-42
2021/10/12 09:27:20;;;;;;;1.25;1.08;;;;;;;;;;5035072;28;20550;-42
2021/10/12 09:29:49;;;;;;;1.13;1.02;;;;;;;;;;5032115;28;20617;-42
2021/10/12 09:32:15;;;;;;;1.00;1.00;;;;;;;;;;5025885;28;20513;-42
2021/10/12 09:34:44;;;;;;;1.08;1.02;;;;;;;;;;5033113;28;20634;-42
2021/10/12 09:37:11;;;;;;;1.27;1.17;;;;;;;;;;5034710;28;20176;-42
2021/10/12 09:39:45;;;;;;;2.13;0.98;;;;;;;;;;5035180;28;20180;-42
2021/10/12 09:42:15;;;;;;;1.25;1.15;;;;;;;;;;5035219;28;20155;-42
2021/10/12 09:44:52;;;;;;;0.98;0.93;;;;;;;;;;5034931;28;20182;-42
2021/10/12 09:47:18;;;;;;;1.02;0.93;;;;;;;;;;5015963;28;20259;-42
2021/10/12 09:49:44;;;;;;;1.45;1.00;;;;;;;;;;5016602;28;20224;-42
2021/10/12 09:52:10;;;;;;;1.65;1.10;;;;;;;;;;5023077;28;20250;-42
2021/10/12 09:54:48;;;;;;;1.10;1.00;;;;;;;;;;5025927;28;20224;-42
2021/10/12 09:57:15;;;;;;;1.50;1.10;;;;;;;;;;5015529;28;20793;-42
2021/10/12 09:59:41;;;;;;;1.20;1.10;;;;;;;;;;5016188;28;20175;-42
2021/10/12 10:02:10;;;;;;;1.05;0.98;;;;;;;;;;5034319;28;20196;-42
2021/10/12 10:04:39;;;;;;;1.17;1.10;;;;;;;;;;5034416;28;20624;-42
2021/10/12 10:07:06;;;;;;;1.08;1.08;;;;;;;;;;5027486;28;20567;-42
2021/10/12 10:09:35;;;;;;;1.80;1.00;;;;;;;;;;5015224;28;20223;-42
2021/10/12 10:12:01;;;;;;;2.35;1.10;;;;;;;;;;5014954;28;20181;-42
2021/10/12 10:14:27;;;;;;;0.75;0.75;;;;;;;;;;5014696;28;20196;-42
2021/10/12 10:16:54;;;;;;;1.13;1.00;;;;;;;;;;5024567;28;20462;-42
2021/10/12 10:19:21;;;;;;;1.85;1.00;;;;;;;;;;5034705;28;20195;-42
2021/10/12 10:21:48;;;;;;;1.00;0.90;;;;;;;;;;5015119;28;20191;-42
2021/10/12 10:24:37;;;;;;;1.52;0.90;;;;;;;;;;5024265;28;20205;-42
2021/10/12 10:27:03;;;;;;;0.98;0.85;;;;;;;;;;5034454;28;20184;-42
2021/10/12 10:29:39;;;;;;;0.80;0.80;;;;;;;;;;5034802;28;20179;-42
2021/10/12 10:32:13;;;;;;;0.93;0.88;;;;;;;;;;5033696;28;20199;-42
2021/10/12 10:34:41;;;;;;;1.13;1.00;;;;;;;;;;5031072;28;20212;-42
2021/10/12 10:37:16;;;;;;;1.20;1.02;;;;;;;;;;5014856;28;20168;-42
2021/10/12 10:39:43;;;;;;;0.90;0.90;;;;;;;;;;5016254;28;20467;-42
2021/10/12 10:42:24;;;;;;;1.10;1.00;;;;;;;;;;5014713;28;20179;-42
2021/10/12 10:45:04;;;;;;;1.10;1.00;;;;;;;;;;5014915;28;20168;-42
2021/10/12 10:47:44;;;;;;;1.25;0.95;;;;;;;;;;5014948;28;20173;-42
2021/10/12 10:50:13;;;;;;;1.02;1.00;;;;;;;;;;5019548;28;20176;-42
2021/10/12 10:52:47;;;;;;;0.80;0.80;;;;;;;;;;5034588;28;20164;-42
2021/10/12 10:55:26;;;;;;;1.20;1.10;;;;;;;;;;5021316;28;20242;-42
2021/10/12 10:58:10;;;;;;;1.05;1.05;;;;;;;;;;5015634;28;20266;-42
2021/10/12 11:00:36;;;;;;;0.95;0.93;;;;;;;;;;5015817;28;20192;-42
2021/10/12 11:03:02;;;;;;;1.05;1.05;;;;;;;;;;5014185;28;20259;-42
2021/10/12 11:05:35;;;;;;;1.42;1.08;;;;;;;;;;5016971;28;20211;-42
2021/10/12 11:08:10;;;;;;;1.25;0.90;;;;;;;;;;5033923;28;20168;-42
2021/10/12 11:10:36;;;;;;;0.80;0.80;;;;;;;;;;5033170;28;20191;-42
2021/10/12 11:13:02;;;;;;;0.85;0.85;;;;;;;;;;5015430;28;20249;-42
2021/10/12 11:15:28;;;;;;;0.80;0.80;;;;;;;;;;5013389;28;20295;-42
2021/10/12 11:18:07;;;;;;;1.67;1.15;;;;;;;;;;5029978;28;20259;-42
2021/10/12 11:20:41;;;;;;;1.02;1.00;;;;;;;;;;5034083;28;20233;-42
2021/10/12 11:23:08;;;;;;;0.80;0.80;;;;;;;;;;5033504;28;20176;-42
2021/10/12 11:25:34;;;;;;;0.70;0.70;;;;;;;;;;5034030;28;20176;-42
2021/10/12 11:28:06;;;;;;;0.80;0.80;;;;;;;;;;5034888;28;20245;-42
2021/10/12 11:30:34;;;;;;;1.15;0.88;;;;;;;;;;5035152;28;20265;-42
2021/10/12 11:33:01;;;;;;;1.25;0.73;;;;;;;;;;5037289;28;20180;-42
2021/10/12 11:35:40;;;;;;;0.98;0.90;;;;;;;;;;5037058;28;20700;-42
2021/10/12 11:38:07;;;;;;;1.00;0.90;;;;;;;;;;5037849;28;20551;-42
2021/10/12 11:40:34;;;;;;;0.90;0.90;;;;;;;;;;5034608;28;20176;-42
2021/10/12 11:43:02;;;;;;;1.20;1.10;;;;;;;;;;5017427;28;20172;-42
2021/10/12 11:45:29;;;;;;;0.90;0.90;;;;;;;;;;5027759;28;20168;-42
2021/10/12 11:47:55;;;;;;;1.15;0.98;;;;;;;;;;5035955;28;20192;-42
2021/10/12 11:50:22;;;;;;;0.70;0.70;;;;;;;;;;5037459;28;20175;-42
2021/10/12 11:52:49;;;;;;;0.80;0.80;;;;;;;;;;5037272;28;20200;-42
2021/10/12 11:55:15;;;;;;;0.98;0.85;;;;;;;;;;5025450;28;20218;-42
2021/10/12 11:57:46;;;;;;;0.88;0.88;;;;;;;;;;5037194;28;20172;-42
2021/10/12 12:00:14;;;;;;;1.33;0.80;;;;;;;;;;5022111;28;20192;-42
2021/10/12 12:02:40;;;;;;;0.80;0.80;;;;;;;;;;5037398;28;20168;-42
2021/10/12 12:05:06;;;;;;;0.77;0.77;;;;;;;;;;5034630;28;20186;-42
2021/10/12 12:07:34;;;;;;;0.88;0.88;;;;;;;;;;5037153;28;20250;-42
2021/10/12 12:10:00;;;;;;;0.88;0.73;;;;;;;;;;5036415;28;20230;-42
2021/10/12 12:12:26;;;;;;;1.35;0.90;;;;;;;;;;5031077;28;20179;-42
2021/10/12 12:14:53;;;;;;;0.70;0.70;;;;;;;;;;5036773;28;20216;-42
2021/10/12 12:17:27;;;;;;;1.00;0.90;;;;;;;;;;5043370;28;20176;-42
2021/10/12 12:19:53;;;;;;;0.95;0.90;;;;;;;;;;5042262;28;20210;-42
2021/10/12 12:22:32;;;;;;;1.15;0.80;;;;;;;;;;5044088;28;20543;-42
2021/10/12 12:25:01;;;;;;;0.93;0.90;;;;;;;;;;5048521;28;20187;-42
2021/10/12 12:27:33;;;;;;;0.90;0.90;;;;;;;;;;5038949;28;20289;-42
2021/10/12 12:29:59;;;;;;;0.70;0.70;;;;;;;;;;5043973;28;20228;-42
2021/10/12 12:32:25;;;;;;;0.80;0.80;;;;;;;;;;5027249;28;20196;-42
2021/10/12 12:34:59;;;;;;;0.85;0.85;;;;;;;;;;5034237;28;20207;-42
2021/10/12 12:37:26;;;;;;;0.80;0.80;;;;;;;;;;5029245;28;20176;-42
2021/10/12 12:39:52;;;;;;;0.70;0.70;;;;;;;;;;5013913;28;20219;-42
2021/10/12 12:42:39;;;;;;;0.70;0.70;;;;;;;;;;5015166;28;20161;-42
2021/10/12 12:45:09;;;;;;;0.90;0.90;;;;;;;;;;5016067;28;20199;-42
2021/10/12 12:47:35;;;;;;;0.70;0.70;;;;;;;;;;5016384;28;20457;-42
2021/10/12 12:50:08;;;;;;;0.88;0.88;;;;;;;;;;5016489;28;20484;-42
2021/10/12 12:52:35;;;;;;;0.82;0.80;;;;;;;;;;5016589;28;20507;-41
2021/10/12 12:55:01;;;;;;;0.80;0.80;;;;;;;;;;5028973;28;20209;-42
2021/10/12 12:57:26;;;;;;;0.60;0.60;;;;;;;;;;5036480;28;20430;-42
2021/10/12 13:00:01;;;;;;;0.80;0.80;;;;;;;;;;5031143;28;20259;-42
2021/10/12 13:02:27;;;;;;;0.68;0.68;;;;;;;;;;5016251;28;20175;-42
2021/10/12 13:04:53;;;;;;;1.08;0.93;;;;;;;;;;5015770;28;20188;-42
2021/10/12 13:07:19;;;;;;;0.80;0.80;;;;;;;;;;5035800;28;20264;-42
2021/10/12 13:09:48;;;;;;;0.70;0.70;;;;;;;;;;5033104;28;20695;-42
2021/10/12 13:12:16;;;;;;;0.70;0.70;;;;;;;;;;5030998;28;20176;-42
2021/10/12 13:14:50;;;;;;;0.90;0.90;;;;;;;;;;5024371;28;20275;-42
2021/10/12 13:17:19;;;;;;;0.70;0.70;;;;;;;;;;5030689;28;20201;-42
2021/10/12 13:19:46;;;;;;;1.27;0.90;;;;;;;;;;5020776;28;20223;-42
2021/10/12 13:22:12;;;;;;;0.80;0.80;;;;;;;;;;5034135;28;20505;-42
2021/10/12 13:24:38;;;;;;;0.80;0.80;;;;;;;;;;5021802;28;20188;-42
2021/10/12 13:27:04;;;;;;;1.63;0.73;;;;;;;;;;5021007;28;20243;-42
2021/10/12 13:29:30;;;;;;;0.70;0.70;;;;;;;;;;5031797;28;20535;-42
2021/10/12 13:31:59;;;;;;;0.90;0.75;;;;;;;;;;5020448;28;20182;-42
2021/10/12 13:34:25;;;;;;;0.80;0.80;;;;;;;;;;5034311;28;20230;-42
2021/10/12 13:36:51;;;;;;;2.83;0.90;;;;;;;;;;5034567;28;20264;-42
2021/10/12 13:39:17;;;;;;;0.90;0.90;;;;;;;;;;5015926;28;20256;-42
2021/10/12 13:41:43;;;;;;;0.88;0.88;;;;;;;;;;5015319;28;20168;-42
2021/10/12 13:44:09;;;;;;;0.88;0.88;;;;;;;;;;5023829;28;20184;-42
2021/10/12 13:46:35;;;;;;;0.85;0.80;;;;;;;;;;5035289;28;20225;-42
2021/10/12 13:49:01;;;;;;;0.70;0.70;;;;;;;;;;5035364;28;20194;-42
2021/10/12 13:51:27;;;;;;;0.82;0.70;;;;;;;;;;5035054;28;20186;-42
2021/10/12 13:53:54;;;;;;;1.05;0.80;;;;;;;;;;5034344;28;20221;-42
2021/10/12 13:56:20;;;;;;;0.93;0.60;;;;;;;;;;5034840;28;20464;-41
2021/10/12 13:58:46;;;;;;;1.23;0.70;;;;;;;;;;5028694;28;20233;-42
2021/10/12 14:01:12;;;;;;;1.00;0.93;;;;;;;;;;5019596;28;20279;-41
2021/10/12 14:03:38;;;;;;;0.98;0.90;;;;;;;;;;5017946;28;20583;-42
2021/10/12 14:06:04;;;;;;;0.80;0.80;;;;;;;;;;5015391;28;20491;-42
2021/10/12 14:08:30;;;;;;;1.88;0.90;;;;;;;;;;5014856;28;20173;-42
2021/10/12 14:10:59;;;;;;;0.70;0.70;;;;;;;;;;5016859;28;20195;-42
2021/10/12 14:13:26;;;;;;;0.95;0.90;;;;;;;;;;5032077;28;20459;-42
2021/10/12 14:15:52;;;;;;;4.70;4.30;;;;;;;;;;5034076;28;20529;-42
2021/10/12 14:18:20;;;;;;;7.43;6.03;;;;;;;;;;5032574;28;20258;-42
2021/10/12 14:20:47;;;;;;;6.93;6.32;;;;;;;;;;5034479;28;20187;-42
2021/10/12 14:23:13;;;;;;;6.82;6.22;;;;;;;;;;5025487;28;20267;-42
2021/10/12 14:25:40;;;;;;;8.05;6.93;;;;;;;;;;5017504;28;20445;-42
2021/10/12 14:28:06;;;;;;;7.30;6.70;;;;;;;;;;5034607;28;20182;-42
2021/10/12 14:30:32;;;;;;;8.02;6.50;;;;;;;;;;5029460;28;20222;-42
2021/10/12 14:32:58;;;;;;;5.95;5.45;;;;;;;;;;5025240;28;20223;-42
2021/10/12 14:35:24;;;;;;;5.85;5.22;;;;;;;;;;5030831;28;20218;-42
2021/10/12 14:37:50;;;;;;;6.43;5.40;;;;;;;;;;5034379;28;20257;-42
2021/10/12 14:40:16;;;;;;;5.00;4.50;;;;;;;;;;5030678;28;20247;-42
2021/10/12 14:42:42;;;;;;;5.82;4.40;;;;;;;;;;5014652;28;20169;-42
2021/10/12 14:45:08;;;;;;;4.75;4.00;;;;;;;;;;5014173;28;20173;-42
2021/10/12 14:47:35;;;;;;;5.25;4.70;;;;;;;;;;5015059;28;20196;-42